Time;durP1;ratioP1;P1;durP2;ratioP2;P2;SDS_P1;SDS_P2;PMS_P1;PMS_P2;Temp;Humidity;BMP_temperature;BMP_pressure;BME280_temperature;BME280_humidity;BME280_pressure;Samples;Min_cycle;Max_cycle;Signal;HPM_P1;HPM_P2
2022/01/23 00:00:16;;;;;;;28.85;16.08;;;;;;;3.13;100.00;100057.50;10394740;28;20054;-79
2022/01/23 00:05:19;;;;;;;27.25;14.93;;;;;;;3.13;100.00;100049.53;10417673;28;20057;-78
2022/01/23 00:10:20;;;;;;;26.63;14.50;;;;;;;3.13;100.00;100049.53;10422816;28;20056;-76
2022/01/23 00:20:46;;;;;;;27.73;15.18;;;;;;;3.09;100.00;100042.25;10404944;28;20552;-77
2022/01/23 00:31:06;;;;;;;27.95;15.43;;;;;;;3.09;100.00;100053.66;10425754;28;20053;-77
2022/01/23 00:36:07;;;;;;;27.55;15.77;;;;;;;3.07;100.00;100037.19;10467235;28;20041;-79
2022/01/23 00:41:08;;;;;;;27.20;14.60;;;;;;;3.03;100.00;100041.34;10454440;28;20486;-78
2022/01/23 00:51:18;;;;;;;25.27;14.77;;;;;;;2.99;100.00;100048.13;10435401;28;20136;-78
2022/01/23 00:56:22;;;;;;;25.05;14.43;;;;;;;2.96;100.00;100045.94;10438715;28;20207;-76
2022/01/23 01:01:22;;;;;;;26.92;15.20;;;;;;;2.97;100.00;100052.84;10423816;28;20797;-77
2022/01/23 01:06:23;;;;;;;26.45;15.07;;;;;;;2.85;100.00;100052.06;10438943;28;20072;-77
2022/01/23 01:37:40;;;;;;;27.88;15.23;;;;;;;2.94;100.00;100063.13;10433318;28;20065;-76
2022/01/23 01:42:44;;;;;;;32.00;16.60;;;;;;;2.90;100.00;100064.59;10430253;28;20754;-77
2022/01/23 01:47:50;;;;;;;29.85;16.15;;;;;;;2.98;100.00;100051.81;10390849;28;20411;-78
2022/01/23 01:52:51;;;;;;;29.10;15.25;;;;;;;2.98;100.00;100038.56;10422165;28;20069;-77
2022/01/23 01:58:00;;;;;;;24.55;15.23;;;;;;;2.84;100.00;100042.47;10420303;28;20068;-79
2022/01/23 02:08:40;;;;;;;27.23;15.93;;;;;;;2.87;100.00;100054.47;10419084;28;20063;-79
2022/01/23 02:13:52;;;;;;;25.63;14.48;;;;;;;2.74;100.00;100058.94;10428173;28;20033;-79
2022/01/23 02:24:46;;;;;;;29.77;15.45;;;;;;;2.73;100.00;100059.97;10459946;28;20041;-80
2022/01/23 02:51:07;;;;;;;24.20;13.43;;;;;;;2.66;100.00;100053.97;10430162;28;20040;-79
2022/01/23 02:56:18;;;;;;;27.73;15.15;;;;;;;2.56;100.00;100061.66;10412601;28;20557;-77
2022/01/23 03:01:19;;;;;;;23.60;12.43;;;;;;;2.73;100.00;100062.63;10432143;28;20065;-76
2022/01/23 03:12:09;;;;;;;24.30;13.80;;;;;;;2.59;100.00;100055.91;10436939;28;20119;-78
2022/01/23 03:33:05;;;;;;;20.67;11.35;;;;;;;2.49;100.00;100090.91;10429553;28;20049;-76
2022/01/23 03:38:06;;;;;;;22.30;12.43;;;;;;;2.55;100.00;100079.41;10436994;28;20120;-77
2022/01/23 03:43:11;;;;;;;23.88;12.23;;;;;;;2.58;100.00;100088.75;10420443;28;20195;-77
2022/01/23 03:53:22;;;;;;;22.83;11.20;;;;;;;2.48;100.00;100040.78;10418917;28;20061;-77
2022/01/23 03:58:24;;;;;;;23.60;12.32;;;;;;;2.44;100.00;100044.91;10410725;28;22094;-77
2022/01/23 04:03:26;;;;;;;21.15;11.10;;;;;;;2.38;100.00;100057.25;10423949;28;20433;-76
2022/01/23 04:08:28;;;;;;;22.20;11.47;;;;;;;2.47;100.00;100063.00;10404752;28;20151;-76
2022/01/23 04:13:42;;;;;;;22.33;11.57;;;;;;;2.61;100.00;100051.19;10413521;28;20053;-75
2022/01/23 04:34:38;;;;;;;23.83;12.55;;;;;;;2.53;100.00;100067.41;10464174;28;20132;-76
2022/01/23 05:01:06;;;;;;;27.92;14.38;;;;;;;2.46;100.00;100082.59;10414664;28;20068;-77
2022/01/23 05:06:30;;;;;;;25.25;12.88;;;;;;;2.42;100.00;100090.19;10404620;28;20057;-78
2022/01/23 05:11:59;;;;;;;31.93;14.30;;;;;;;2.35;100.00;100104.56;10422560;28;20386;-76
2022/01/23 05:17:04;;;;;;;29.52;14.75;;;;;;;2.43;100.00;100106.91;10405089;28;20053;-77
2022/01/23 05:27:17;;;;;;;28.70;13.90;;;;;;;2.45;100.00;100104.81;10421915;28;20093;-76
2022/01/23 05:32:23;;;;;;;28.00;14.45;;;;;;;2.47;100.00;100110.69;10427206;28;20096;-77
2022/01/23 05:37:24;;;;;;;32.35;14.68;;;;;;;2.42;100.00;100111.38;10427510;28;20092;-77
2022/01/23 05:42:27;;;;;;;27.27;13.32;;;;;;;2.42;100.00;100110.59;10419423;28;20049;-76
2022/01/23 05:47:27;;;;;;;27.50;13.65;;;;;;;2.43;100.00;100117.50;10412722;28;20045;-78
2022/01/23 05:52:35;;;;;;;28.38;14.32;;;;;;;2.40;100.00;100118.75;10419364;28;20060;-77
2022/01/23 05:57:54;;;;;;;27.75;13.25;;;;;;;2.40;100.00;100112.66;10436554;28;20059;-77
2022/01/23 06:03:04;;;;;;;31.42;14.90;;;;;;;2.45;100.00;100112.78;10451279;28;20057;-76
2022/01/23 06:08:16;;;;;;;32.10;14.40;;;;;;;2.47;100.00;100110.69;10430531;28;20061;-76
2022/01/23 06:13:19;;;;;;;28.40;13.55;;;;;;;2.43;100.00;100117.50;10465060;28;20093;-78
2022/01/23 06:18:23;;;;;;;29.83;14.63;;;;;;;2.41;100.00;100125.69;10442393;28;20049;-77
2022/01/23 06:23:42;;;;;;;28.50;13.98;;;;;;;2.45;100.00;100139.28;10464348;28;20057;-77
2022/01/23 06:29:04;;;;;;;26.98;12.85;;;;;;;2.44;100.00;100150.91;10457953;28;20065;-78
2022/01/23 06:34:10;;;;;;;30.08;14.93;;;;;;;2.36;100.00;100149.38;10432376;28;20080;-78
2022/01/23 06:39:15;;;;;;;30.67;15.35;;;;;;;2.35;100.00;100145.09;10451690;28;20056;-77
2022/01/23 06:44:36;;;;;;;;;;;;;;;2.33;100.00;100149.81;10472062;28;20068;-77
2022/01/23 06:49:39;;;;;;;28.13;13.70;;;;;;;2.35;100.00;100160.19;10445146;28;19992;-78
2022/01/23 06:54:40;;;;;;;31.77;14.55;;;;;;;2.34;100.00;100175.28;10430385;28;20136;-78
2022/01/23 06:59:45;;;;;;;26.98;13.15;;;;;;;2.39;100.00;100164.03;10456365;28;20057;-76
2022/01/23 07:05:28;;;;;;;30.90;14.55;;;;;;;2.34;100.00;100171.81;10270725;28;20058;-78
2022/01/23 07:10:40;;;;;;;31.50;15.48;;;;;;;2.33;100.00;100186.91;10419854;28;20187;-78
2022/01/23 07:16:06;;;;;;;31.58;14.30;;;;;;;2.34;100.00;100180.59;10431079;28;20480;-78
2022/01/23 07:21:39;;;;;;;26.17;14.53;;;;;;;2.25;100.00;100180.06;10432202;28;20041;-78
2022/01/23 07:26:40;;;;;;;30.80;14.80;;;;;;;2.31;100.00;100185.53;10436085;28;20374;-77
2022/01/23 07:31:55;;;;;;;31.38;14.57;;;;;;;2.20;100.00;100192.38;10426571;28;20057;-78
2022/01/23 07:36:57;;;;;;;32.88;14.80;;;;;;;2.25;100.00;100206.56;10420686;28;20049;-77
2022/01/23 07:42:12;;;;;;;29.75;14.48;;;;;;;2.35;100.00;100218.50;10406983;28;20367;-77
2022/01/23 07:47:30;;;;;;;32.28;15.13;;;;;;;2.43;100.00;100226.94;10420129;28;20053;-79
2022/01/23 07:52:50;;;;;;;31.80;16.17;;;;;;;2.47;100.00;100233.44;10435465;28;20044;-79
2022/01/23 07:58:18;;;;;;;28.70;15.55;;;;;;;2.62;100.00;100230.41;10452817;28;20072;-77
2022/01/23 08:03:48;;;;;;;29.05;14.35;;;;;;;2.72;100.00;100232.53;10417519;28;20072;-78
2022/01/23 08:08:55;;;;;;;27.95;14.20;;;;;;;2.78;100.00;100236.94;10409940;28;20076;-79
2022/01/23 08:14:03;;;;;;;29.17;13.63;;;;;;;2.79;100.00;100236.72;10429226;28;20140;-77
2022/01/23 08:19:04;;;;;;;;;;;;;;;2.87;100.00;100240.09;10450622;28;20068;-77
2022/01/23 08:24:05;;;;;;;26.38;13.57;;;;;;;3.00;100.00;100245.22;10468732;28;19961;-79
2022/01/23 08:29:07;;;;;;;24.93;12.90;;;;;;;3.02;100.00;100251.94;10426189;28;20057;-79
2022/01/23 08:34:09;;;;;;;27.40;13.50;;;;;;;3.09;100.00;100249.16;10393913;28;20061;-78
2022/01/23 08:39:12;;;;;;;28.50;13.30;;;;;;;3.16;100.00;100246.44;10454089;28;20103;-77
2022/01/23 08:44:15;;;;;;;26.95;12.82;;;;;;;3.32;100.00;100251.91;10432300;28;20134;-77
2022/01/23 08:49:17;;;;;;;27.70;12.83;;;;;;;3.37;100.00;100240.59;10429597;28;20068;-79
2022/01/23 08:54:30;;;;;;;25.48;12.80;;;;;;;3.43;100.00;100245.81;10420576;28;20514;-77
2022/01/23 08:59:31;;;;;;;21.58;11.15;;;;;;;3.48;100.00;100250.47;10401042;28;20602;-76
2022/01/23 09:04:35;;;;;;;21.13;10.55;;;;;;;3.54;100.00;100244.22;10389623;28;20053;-78
2022/01/23 09:09:38;;;;;;;18.92;9.70;;;;;;;3.81;100.00;100233.97;10407224;28;20273;-77
2022/01/23 09:14:40;;;;;;;15.50;8.48;;;;;;;3.70;100.00;100222.31;10415337;28;20056;-77
2022/01/23 09:19:45;;;;;;;15.63;7.88;;;;;;;3.85;100.00;100221.06;10419089;28;20065;-77
2022/01/23 09:24:46;;;;;;;15.82;8.88;;;;;;;3.92;100.00;100224.38;10412610;28;20062;-78
2022/01/23 09:29:50;;;;;;;14.70;7.95;;;;;;;3.89;100.00;100217.69;10415911;28;20045;-81
2022/01/23 09:34:52;;;;;;;15.25;8.35;;;;;;;4.03;100.00;100231.56;10430333;28;20053;-79
2022/01/23 09:39:58;;;;;;;11.35;6.57;;;;;;;4.12;100.00;100232.03;10433376;28;20049;-78
2022/01/23 09:45:07;;;;;;;13.65;7.55;;;;;;;4.34;100.00;100222.41;10417643;28;20057;-78
2022/01/23 09:50:12;;;;;;;12.90;7.00;;;;;;;4.45;100.00;100229.53;10425974;28;20057;-79
2022/01/23 09:55:13;;;;;;;12.45;7.22;;;;;;;4.49;100.00;100235.22;10461884;28;20079;-80
2022/01/23 10:00:17;;;;;;;10.65;6.10;;;;;;;4.59;100.00;100238.06;10476580;28;20057;-79
2022/01/23 10:05:19;;;;;;;13.05;6.63;;;;;;;4.61;100.00;100243.16;10455361;28;20053;-80
2022/01/23 10:10:25;;;;;;;13.48;7.03;;;;;;;4.54;100.00;100225.47;10420197;28;20041;-77
2022/01/23 10:15:31;;;;;;;11.23;6.03;;;;;;;4.81;100.00;100214.28;10441106;28;20127;-79
2022/01/23 10:20:31;;;;;;;13.02;7.35;;;;;;;4.78;100.00;100212.91;10433940;28;20390;-77
2022/01/23 10:25:33;;;;;;;10.60;6.43;;;;;;;4.89;100.00;100213.91;10431854;28;20993;-78
2022/01/23 10:30:48;;;;;;;9.63;5.72;;;;;;;4.61;100.00;100197.94;10439732;28;20212;-77
2022/01/23 10:35:55;;;;;;;10.68;6.10;;;;;;;4.66;100.00;100209.47;10435669;28;20064;-78
2022/01/23 10:41:06;;;;;;;9.07;5.00;;;;;;;4.49;100.00;100217.41;10433092;28;20410;-76
2022/01/23 10:51:36;;;;;;;9.38;5.43;;;;;;;4.50;100.00;100199.59;10430519;28;20054;-77
2022/01/23 10:56:59;;;;;;;8.90;5.00;;;;;;;4.56;100.00;100202.09;10418382;28;20068;-76
2022/01/23 11:02:08;;;;;;;11.48;5.82;;;;;;;4.57;100.00;100198.44;10410661;28;20048;-77
2022/01/23 11:07:12;;;;;;;11.15;5.35;;;;;;;4.61;100.00;100196.09;10437697;28;20081;-76
2022/01/23 11:17:21;;;;;;;8.82;5.05;;;;;;;4.59;100.00;100198.19;10432725;28;20049;-75
2022/01/23 11:17:50;;;;;;;9.20;5.15;;;;;;;4.81;100.00;100198.31;10446599;28;20509;-77
2022/01/23 11:23:01;;;;;;;4.82;3.85;;;;;;;4.65;100.00;100189.25;10441158;28;20057;-76
2022/01/23 11:28:04;;;;;;;5.60;3.58;;;;;;;4.58;100.00;100199.22;10395722;28;20053;-78
2022/01/23 11:33:22;;;;;;;4.57;3.13;;;;;;;4.66;100.00;100200.69;10414960;28;20064;-79
2022/01/23 11:38:26;;;;;;;4.55;2.97;;;;;;;4.68;100.00;100199.44;10414400;28;20073;-78
2022/01/23 11:54:33;;;;;;;5.18;2.95;;;;;;;4.82;100.00;100195.44;10450589;28;20511;-80
2022/01/23 11:59:40;;;;;;;6.43;3.25;;;;;;;4.66;100.00;100193.50;10472808;28;20056;-79
2022/01/23 12:05:09;;;;;;;4.70;3.10;;;;;;;4.82;100.00;100189.28;10459845;28;20087;-77
2022/01/23 12:10:32;;;;;;;4.72;3.20;;;;;;;4.67;100.00;100181.84;10426799;28;20072;-75
2022/01/23 12:20:53;;;;;;;3.45;2.50;;;;;;;4.87;100.00;100175.28;10421537;28;20049;-76
2022/01/23 12:25:58;;;;;;;4.22;3.00;;;;;;;4.73;100.00;100164.94;10455479;28;20053;-76
2022/01/23 12:31:17;;;;;;;3.97;2.42;;;;;;;4.69;100.00;100163.81;10441982;28;20125;-77
2022/01/23 12:36:25;;;;;;;4.43;2.60;;;;;;;4.89;100.00;100152.72;10432631;28;20451;-77
2022/01/23 12:41:30;;;;;;;3.60;2.72;;;;;;;4.93;100.00;100153.03;10378094;28;20057;-77
2022/01/23 12:46:36;;;;;;;4.72;2.50;;;;;;;4.85;100.00;100133.78;10433202;28;20053;-78
2022/01/23 12:51:38;;;;;;;3.45;2.35;;;;;;;4.80;100.00;100152.28;10443707;28;20045;-78
2022/01/23 12:56:45;;;;;;;3.90;2.83;;;;;;;4.60;100.00;100159.09;10444852;28;20035;-77
2022/01/23 13:01:47;;;;;;;5.20;3.33;;;;;;;4.51;100.00;100151.50;10448338;28;20049;-77
2022/01/23 13:12:06;;;;;;;4.07;2.67;;;;;;;4.51;100.00;100166.66;10462714;28;20041;-78
2022/01/23 13:33:04;;;;;;;4.50;3.20;;;;;;;4.58;100.00;100162.00;10447358;28;20076;-78
2022/01/23 13:38:10;;;;;;;4.25;3.00;;;;;;;4.62;100.00;100157.81;10433106;28;20183;-79
2022/01/23 13:48:47;;;;;;;5.00;2.72;;;;;;;4.82;100.00;100144.88;10427389;28;20044;-76
2022/01/23 13:59:09;;;;;;;2.10;1.80;;;;;;;4.72;100.00;100131.41;10354085;28;20482;-74
2022/01/23 14:04:10;;;;;;;3.25;2.40;;;;;;;4.83;100.00;100129.72;10345881;28;20054;-72
2022/01/23 14:09:14;;;;;;;3.75;2.63;;;;;;;4.69;100.00;100139.88;10325254;28;20112;-77
2022/01/23 14:14:16;;;;;;;2.95;2.00;;;;;;;4.61;100.00;100139.44;10333321;28;20065;-77
2022/01/23 14:19:28;;;;;;;2.88;1.95;;;;;;;4.52;100.00;100134.50;10348638;28;20066;-76
2022/01/23 14:24:33;;;;;;;2.95;2.03;;;;;;;4.55;100.00;100130.56;10415090;28;20187;-79
2022/01/23 14:29:48;;;;;;;6.88;4.22;;;;;;;4.57;100.00;100137.25;10419483;28;20057;-77
2022/01/23 14:34:48;;;;;;;2.60;1.90;;;;;;;4.46;100.00;100142.59;10418852;28;20117;-83
2022/01/23 14:39:49;;;;;;;4.18;3.00;;;;;;;4.34;100.00;100139.19;10444542;28;20067;-77
2022/01/23 14:44:52;;;;;;;3.38;2.30;;;;;;;4.28;100.00;100131.09;10415712;28;20062;-76
2022/01/23 14:49:58;;;;;;;;;;;;;;;4.26;100.00;100143.81;10426523;28;20064;-78
2022/01/23 14:55:20;;;;;;;5.47;3.58;;;;;;;4.33;100.00;100146.34;10412756;28;19940;-81
2022/01/23 15:00:22;;;;;;;5.60;3.17;;;;;;;4.38;100.00;100135.81;10437623;28;20062;-77
2022/01/23 15:05:32;;;;;;;3.50;2.80;;;;;;;4.37;100.00;100130.72;10433640;28;20268;-77
2022/01/23 15:10:37;;;;;;;5.47;3.13;;;;;;;4.29;100.00;100126.59;10411480;28;20057;-77
2022/01/23 15:15:38;;;;;;;5.00;2.85;;;;;;;4.35;100.00;100133.63;10442773;28;20668;-79
2022/01/23 15:20:39;;;;;;;4.95;3.10;;;;;;;4.21;100.00;100133.09;10422448;28;20064;-78
2022/01/23 15:25:42;;;;;;;3.85;2.78;;;;;;;4.31;100.00;100129.03;10444466;28;20061;-76
2022/01/23 15:30:46;;;;;;;4.60;3.00;;;;;;;4.17;100.00;100126.63;10447858;28;20052;-77
2022/01/23 15:35:48;;;;;;;3.80;2.90;;;;;;;4.25;100.00;100131.59;10454351;28;20048;-78
2022/01/23 15:40:51;;;;;;;3.97;2.67;;;;;;;4.18;100.00;100130.09;10446699;28;20053;-77
2022/01/23 15:45:52;;;;;;;6.32;3.60;;;;;;;4.06;100.00;100130.13;10443548;28;20064;-80
2022/01/23 15:50:55;;;;;;;5.15;3.53;;;;;;;4.02;100.00;100130.81;10445462;28;20209;-79
2022/01/23 15:55:57;;;;;;;7.28;4.68;;;;;;;3.92;100.00;100129.56;10434886;28;20056;-78
2022/01/23 16:00:59;;;;;;;6.20;4.03;;;;;;;3.94;100.00;100139.97;10412864;28;20382;-77
2022/01/23 16:06:03;;;;;;;5.03;2.80;;;;;;;3.84;100.00;100140.56;10426724;28;20160;-79
2022/01/23 16:11:06;;;;;;;4.13;3.13;;;;;;;3.89;100.00;100147.81;10401022;28;20053;-79
2022/01/23 16:16:10;;;;;;;3.10;2.27;;;;;;;3.86;100.00;100138.50;10442900;28;20053;-80
2022/01/23 16:21:28;;;;;;;4.22;2.70;;;;;;;3.84;100.00;100148.53;10416448;28;20416;-79
2022/01/23 16:26:50;;;;;;;5.93;3.35;;;;;;;3.86;100.00;100159.72;10381432;28;20065;-80
2022/01/23 16:31:54;;;;;;;5.32;3.25;;;;;;;3.78;100.00;100152.13;10432548;28;20100;-80
2022/01/23 16:36:56;;;;;;;5.75;3.33;;;;;;;3.79;100.00;100156.38;10458993;28;20029;-83
2022/01/23 16:41:57;;;;;;;4.90;2.67;;;;;;;3.65;100.00;100152.34;10472446;28;20064;-79
2022/01/23 16:46:57;;;;;;;8.82;5.28;;;;;;;3.69;100.00;100153.50;10409660;28;20128;-79
2022/01/23 16:51:58;;;;;;;4.50;2.85;;;;;;;3.62;100.00;100158.91;10428329;28;21011;-82
2022/01/23 16:56:59;;;;;;;4.28;3.40;;;;;;;3.52;100.00;100166.66;10446685;28;20406;-78
2022/01/23 17:02:01;;;;;;;3.90;3.08;;;;;;;3.57;100.00;100174.75;10435198;28;20053;-78
2022/01/23 17:07:04;;;;;;;3.78;3.10;;;;;;;3.61;100.00;100167.13;10445081;28;20053;-80
2022/01/23 17:12:08;;;;;;;4.85;2.95;;;;;;;3.55;100.00;100168.03;10419539;28;20394;-81
2022/01/23 17:17:10;;;;;;;5.15;3.05;;;;;;;3.60;100.00;100173.47;10421379;28;20064;-78
2022/01/23 17:22:14;;;;;;;4.95;3.25;;;;;;;3.52;100.00;100176.47;10475797;28;20076;-78
2022/01/23 17:27:17;;;;;;;4.28;3.17;;;;;;;3.62;100.00;100177.50;10474736;28;20365;-78
2022/01/23 17:32:22;;;;;;;4.93;3.22;;;;;;;3.48;100.00;100173.47;10437582;28;20068;-79
2022/01/23 17:37:22;;;;;;;4.90;3.20;;;;;;;3.62;100.00;100172.19;10447540;28;20033;-80
2022/01/23 17:42:24;;;;;;;7.75;5.30;;;;;;;3.57;100.00;100177.41;10463072;28;20358;-80
2022/01/23 17:52:31;;;;;;;3.13;2.50;;;;;;;3.48;100.00;100184.09;10440099;28;20057;-79
2022/01/23 17:57:42;;;;;;;3.20;2.83;;;;;;;3.53;100.00;100184.19;10449159;28;20092;-81
2022/01/23 18:02:46;;;;;;;4.30;3.00;;;;;;;3.37;100.00;100203.44;10453187;28;20064;-80
2022/01/23 18:08:00;;;;;;;6.90;4.38;;;;;;;3.52;100.00;100195.06;10456594;28;20244;-82
2022/01/23 18:13:27;;;;;;;6.03;4.43;;;;;;;3.42;100.00;100195.63;10437448;28;20063;-81
2022/01/23 18:18:27;;;;;;;7.80;4.78;;;;;;;3.41;100.00;100207.28;10392585;28;20076;-79
2022/01/23 18:23:31;;;;;;;4.60;4.10;;;;;;;3.46;100.00;100206.56;10440732;28;20129;-78
2022/01/23 18:28:36;;;;;;;;;;;;;;;3.45;100.00;100197.81;10433801;28;20533;-78
2022/01/23 18:33:41;;;;;;;4.32;3.70;;;;;;;3.43;100.00;100215.81;10417611;28;20716;-80
2022/01/23 18:38:43;;;;;;;8.00;3.67;;;;;;;3.41;100.00;100210.75;10433939;28;20059;-78
2022/01/23 18:43:44;;;;;;;5.15;3.42;;;;;;;3.35;100.00;100206.34;10424072;28;20088;-79
2022/01/23 18:48:47;;;;;;;6.28;4.25;;;;;;;3.50;100.00;100211.22;10402749;28;20079;-79
2022/01/23 18:59:29;;;;;;;6.70;4.00;;;;;;;3.39;100.00;100212.00;10405983;28;20076;-82
2022/01/23 19:04:51;;;;;;;7.35;5.28;;;;;;;3.34;100.00;100210.03;10458422;28;20045;-80
2022/01/23 19:10:10;;;;;;;4.18;3.33;;;;;;;3.39;100.00;100204.03;10435412;28;20057;-82
2022/01/23 19:15:39;;;;;;;4.80;3.65;;;;;;;3.35;100.00;100201.03;10427932;28;20076;-83
2022/01/23 19:21:06;;;;;;;4.97;4.15;;;;;;;3.34;100.00;100198.59;10448885;28;20056;-79
2022/01/23 19:26:10;;;;;;;4.97;4.30;;;;;;;3.35;100.00;100213.47;10510732;23;20089;-80
2022/01/23 19:31:43;;;;;;;5.75;3.97;;;;;;;3.34;100.00;100219.84;10500787;28;20052;-79
2022/01/23 19:36:47;;;;;;;5.50;3.85;;;;;;;3.36;100.00;100223.06;10493753;28;20037;-80
2022/01/23 19:47:38;;;;;;;4.90;3.45;;;;;;;3.32;100.00;100216.59;10439928;28;20048;-80
2022/01/23 19:52:41;;;;;;;4.72;3.13;;;;;;;3.28;100.00;100213.56;10483621;28;20053;-79
2022/01/23 19:57:41;;;;;;;3.90;3.30;;;;;;;3.28;100.00;100218.88;10503546;28;20049;-78
2022/01/23 20:02:42;;;;;;;4.78;3.67;;;;;;;3.24;100.00;100215.06;10484498;28;20187;-77
2022/01/23 20:07:44;;;;;;;5.40;3.95;;;;;;;3.23;100.00;100226.72;10475573;28;20052;-77
2022/01/23 20:12:46;;;;;;;6.93;5.03;;;;;;;3.17;100.00;100227.63;10488414;28;20043;-79
2022/01/23 20:17:50;;;;;;;4.97;4.28;;;;;;;3.17;100.00;100224.16;10476838;28;20048;-78
2022/01/23 20:22:52;;;;;;;5.55;4.85;;;;;;;3.16;100.00;100233.97;10489362;28;20138;-78
2022/01/23 20:27:57;;;;;;;7.15;5.10;;;;;;;3.09;100.00;100228.75;10474609;28;20080;-79
2022/01/23 20:33:02;;;;;;;5.88;4.75;;;;;;;3.21;100.00;100244.72;10441084;28;20406;-78
2022/01/23 20:38:08;;;;;;;5.28;4.28;;;;;;;3.18;100.00;100237.19;10454560;28;20049;-82
2022/01/23 20:43:09;;;;;;;6.00;4.45;;;;;;;3.22;100.00;100242.88;10471716;28;20057;-77
2022/01/23 20:48:11;;;;;;;5.22;4.00;;;;;;;3.28;100.00;100248.06;10486943;28;20048;-76
2022/01/23 20:58:36;;;;;;;5.70;3.67;;;;;;;3.17;100.00;100237.44;10476394;28;20049;-77
2022/01/23 21:03:37;;;;;;;7.30;4.32;;;;;;;3.07;100.00;100233.47;10456965;28;20079;-77
2022/01/23 21:08:38;;;;;;;6.00;3.80;;;;;;;3.10;100.00;100251.59;10500576;28;20048;-77
2022/01/23 21:13:52;;;;;;;7.22;4.55;;;;;;;3.06;100.00;100231.06;10434916;28;20049;-79
2022/01/23 21:40:05;;;;;;;8.45;6.90;;;;;;;2.97;100.00;100235.06;10462073;28;20041;-80
2022/01/23 21:45:08;;;;;;;7.10;6.30;;;;;;;3.01;100.00;100239.69;10464598;28;20056;-77
2022/01/23 21:50:09;;;;;;;8.23;6.38;;;;;;;2.96;100.00;100226.28;10500538;28;20056;-77
2022/01/23 21:55:09;;;;;;;6.57;5.93;;;;;;;2.97;100.00;100237.72;10465937;28;20096;-78
2022/01/23 22:00:14;;;;;;;7.82;6.40;;;;;;;2.95;100.00;100235.28;10455693;28;20056;-78
2022/01/23 22:05:14;;;;;;;6.50;5.80;;;;;;;2.94;100.00;100238.97;10498668;28;20056;-78
2022/01/23 22:20:38;;;;;;;8.18;5.25;;;;;;;2.99;100.00;100235.63;10461448;28;20479;-79
2022/01/23 22:30:58;;;;;;;7.50;5.50;;;;;;;2.89;100.00;100225.56;10463202;28;20444;-78
2022/01/23 22:36:01;;;;;;;7.43;5.38;;;;;;;2.92;100.00;100226.97;10462089;28;20563;-78
2022/01/23 22:41:02;;;;;;;8.77;6.10;;;;;;;2.89;100.00;100232.72;10442430;28;20454;-77
2022/01/23 22:51:07;;;;;;;8.10;5.85;;;;;;;2.89;100.00;100230.88;10474098;28;20064;-78
2022/01/23 22:56:08;;;;;;;8.05;5.85;;;;;;;2.84;100.00;100231.56;10476910;28;20056;-77
2022/01/23 23:01:09;;;;;;;10.07;6.43;;;;;;;2.87;100.00;100232.13;10478136;28;20052;-77
2022/01/23 23:06:10;;;;;;;8.73;6.55;;;;;;;2.85;100.00;100232.38;10456706;28;20060;-78
2022/01/23 23:11:13;;;;;;;8.40;6.18;;;;;;;2.85;100.00;100230.53;10465958;28;20152;-78
2022/01/23 23:16:19;;;;;;;7.22;6.35;;;;;;;2.87;100.00;100240.91;10499807;28;20041;-78
2022/01/23 23:21:34;;;;;;;7.43;6.55;;;;;;;2.79;100.00;100243.84;10488021;28;20079;-78
2022/01/23 23:26:37;;;;;;;9.68;7.07;;;;;;;2.78;100.00;100237.75;10481643;28;20462;-78
2022/01/23 23:31:39;;;;;;;9.23;7.13;;;;;;;2.75;100.00;100235.56;10444041;28;20559;-78
2022/01/23 23:36:40;;;;;;;7.50;6.32;;;;;;;2.75;100.00;100232.91;10450450;28;20072;-77
2022/01/23 23:41:48;;;;;;;7.97;6.78;;;;;;;2.74;100.00;100236.59;10463196;28;20052;-77
2022/01/23 23:46:51;;;;;;;8.57;7.15;;;;;;;2.66;100.00;100236.09;10468665;28;20124;-76
2022/01/23 23:51:54;;;;;;;10.20;6.72;;;;;;;2.69;100.00;100239.09;10458872;28;20079;-78
2022/01/23 23:56:58;;;;;;;7.32;6.47;;;;;;;2.69;100.00;100240.94;10432939;28;20450;-78
